sensor_id;sensor_type;location;lat;lon;timestamp;pressure;altitude;pressure_sealevel;temperature;humidity
6899;BME280;3488;42.616;23.350;2023-02-18T00:00:28;62430.28;;;4.24;63.55
6899;BME280;3488;42.616;23.350;2023-02-18T00:02:55;62435.38;;;4.27;62.54
6899;BME280;3488;42.616;23.350;2023-02-18T00:05:23;62433.66;;;4.18;62.29
6899;BME280;3488;42.616;23.350;2023-02-18T00:07:51;62445.53;;;4.29;61.73
6899;BME280;3488;42.616;23.350;2023-02-18T00:10:18;62436.34;;;4.25;62.31
6899;BME280;3488;42.616;23.350;2023-02-18T00:12:45;62432.19;;;4.19;62.59
6899;BME280;3488;42.616;23.350;2023-02-18T00:15:12;62434.75;;;4.21;62.25
6899;BME280;3488;42.616;23.350;2023-02-18T00:17:39;62433.22;;;4.20;62.74
6899;BME280;3488;42.616;23.350;2023-02-18T00:20:06;62432.22;;;4.21;62.96
6899;BME280;3488;42.616;23.350;2023-02-18T00:22:35;62423.50;;;4.13;64.98
6899;BME280;3488;42.616;23.350;2023-02-18T00:25:02;62411.66;;;4.01;65.99
6899;BME280;3488;42.616;23.350;2023-02-18T00:27:30;62410.16;;;4.02;66.42
6899;BME280;3488;42.616;23.350;2023-02-18T00:29:58;62409.09;;;3.99;66.91
6899;BME280;3488;42.616;23.350;2023-02-18T00:32:25;62403.38;;;3.91;67.44
6899;BME280;3488;42.616;23.350;2023-02-18T00:34:52;62398.88;;;3.91;67.03
6899;BME280;3488;42.616;23.350;2023-02-18T00:37:19;62388.00;;;3.78;67.94
6899;BME280;3488;42.616;23.350;2023-02-18T00:39:48;62401.78;;;3.87;66.95
6899;BME280;3488;42.616;23.350;2023-02-18T00:42:15;62396.25;;;3.86;65.52
6899;BME280;3488;42.616;23.350;2023-02-18T00:44:42;62395.72;;;3.86;65.98
6899;BME280;3488;42.616;23.350;2023-02-18T00:47:09;62385.91;;;3.74;66.25
6899;BME280;3488;42.616;23.350;2023-02-18T00:49:37;62377.19;;;3.68;66.40
6899;BME280;3488;42.616;23.350;2023-02-18T00:52:05;62364.91;;;3.58;66.73
6899;BME280;3488;42.616;23.350;2023-02-18T00:54:32;62370.47;;;3.59;66.77
6899;BME280;3488;42.616;23.350;2023-02-18T00:57:00;62361.78;;;3.52;67.42
6899;BME280;3488;42.616;23.350;2023-02-18T00:59:28;62364.34;;;3.55;67.78
6899;BME280;3488;42.616;23.350;2023-02-18T01:01:55;62360.75;;;3.51;67.99
6899;BME280;3488;42.616;23.350;2023-02-18T01:04:22;62345.34;;;3.36;68.22
6899;BME280;3488;42.616;23.350;2023-02-18T01:06:51;62354.00;;;3.42;68.34
6899;BME280;3488;42.616;23.350;2023-02-18T01:09:18;62358.63;;;3.47;68.32
6899;BME280;3488;42.616;23.350;2023-02-18T01:11:45;62350.38;;;3.36;68.68
6899;BME280;3488;42.616;23.350;2023-02-18T01:14:14;62338.59;;;3.27;68.53
6899;BME280;3488;42.616;23.350;2023-02-18T01:16:41;62355.00;;;3.41;69.09
6899;BME280;3488;42.616;23.350;2023-02-18T01:19:07;62342.31;;;3.36;69.25
6899;BME280;3488;42.616;23.350;2023-02-18T01:21:34;62351.44;;;3.40;68.96
6899;BME280;3488;42.616;23.350;2023-02-18T01:24:02;62350.94;;;3.39;68.98
6899;BME280;3488;42.616;23.350;2023-02-18T01:26:29;62342.75;;;3.34;70.51
6899;BME280;3488;42.616;23.350;2023-02-18T01:28:56;62338.19;;;3.32;70.29
6899;BME280;3488;42.616;23.350;2023-02-18T01:31:25;62337.09;;;3.28;69.61
6899;BME280;3488;42.616;23.350;2023-02-18T01:33:52;62340.69;;;3.32;69.40
6899;BME280;3488;42.616;23.350;2023-02-18T01:36:19;62336.13;;;3.30;69.76
6899;BME280;3488;42.616;23.350;2023-02-18T01:38:46;62325.81;;;3.17;69.48
6899;BME280;3488;42.616;23.350;2023-02-18T01:41:13;62349.97;;;3.41;68.78
6899;BME280;3488;42.616;23.350;2023-02-18T01:43:41;62334.53;;;3.26;69.60
6899;BME280;3488;42.616;23.350;2023-02-18T01:46:16;62337.63;;;3.29;70.07
6899;BME280;3488;42.616;23.350;2023-02-18T01:48:49;62331.97;;;3.23;69.29
6899;BME280;3488;42.616;23.350;2023-02-18T01:51:20;62338.72;;;3.32;68.50
6899;BME280;3488;42.616;23.350;2023-02-18T01:53:55;62348.91;;;3.40;68.03
6899;BME280;3488;42.616;23.350;2023-02-18T01:56:26;62341.75;;;3.33;69.30
6899;BME280;3488;42.616;23.350;2023-02-18T01:58:56;62327.84;;;3.19;70.62
6899;BME280;3488;42.616;23.350;2023-02-18T02:01:26;62335.56;;;3.27;70.00
6899;BME280;3488;42.616;23.350;2023-02-18T02:03:54;62330.44;;;3.22;70.25
6899;BME280;3488;42.616;23.350;2023-02-18T02:06:22;62335.03;;;3.26;70.69
6899;BME280;3488;42.616;23.350;2023-02-18T02:08:52;62328.31;;;3.17;70.77
6899;BME280;3488;42.616;23.350;2023-02-18T02:11:27;62326.81;;;3.18;71.20
6899;BME280;3488;42.616;23.350;2023-02-18T02:14:17;62328.94;;;3.23;70.93
6899;BME280;3488;42.616;23.350;2023-02-18T02:16:52;62329.41;;;3.21;71.70
6899;BME280;3488;42.616;23.350;2023-02-18T02:23:01;62314.44;;;3.04;73.93
6899;BME280;3488;42.616;23.350;2023-02-18T02:25:49;62307.84;;;3.02;72.80
6899;BME280;3488;42.616;23.350;2023-02-18T02:28:50;62311.91;;;3.04;74.19
6899;BME280;3488;42.616;23.350;2023-02-18T02:31:46;62309.88;;;3.02;73.32
6899;BME280;3488;42.616;23.350;2023-02-18T02:34:23;62311.91;;;3.04;73.79
6899;BME280;3488;42.616;23.350;2023-02-18T02:36:58;62320.09;;;3.09;73.31
6899;BME280;3488;42.616;23.350;2023-02-18T02:39:32;62323.63;;;3.10;72.42
6899;BME280;3488;42.616;23.350;2023-02-18T02:42:08;62325.28;;;3.17;72.30
6899;BME280;3488;42.616;23.350;2023-02-18T02:44:46;62330.94;;;3.22;71.41
6899;BME280;3488;42.616;23.350;2023-02-18T02:47:20;62330.53;;;3.27;71.32
6899;BME280;3488;42.616;23.350;2023-02-18T02:49:59;62324.75;;;3.16;71.33
6899;BME280;3488;42.616;23.350;2023-02-18T02:52:31;62315.13;;;3.12;71.92
6899;BME280;3488;42.616;23.350;2023-02-18T02:54:58;62307.25;;;2.97;75.48
6899;BME280;3488;42.616;23.350;2023-02-18T02:57:43;62306.28;;;2.98;75.14
6899;BME280;3488;42.616;23.350;2023-02-18T03:00:12;62310.38;;;3.02;74.51
6899;BME280;3488;42.616;23.350;2023-02-18T03:02:49;62306.31;;;3.01;74.30
6899;BME280;3488;42.616;23.350;2023-02-18T03:05:31;62314.94;;;3.04;73.84
6899;BME280;3488;42.616;23.350;2023-02-18T03:08:12;62317.53;;;3.07;72.82
6899;BME280;3488;42.616;23.350;2023-02-18T03:10:48;62319.69;;;3.14;71.81
6899;BME280;3488;42.616;23.350;2023-02-18T03:13:27;62323.13;;;3.10;72.41
6899;BME280;3488;42.616;23.350;2023-02-18T03:16:00;62321.63;;;3.11;73.07
6899;BME280;3488;42.616;23.350;2023-02-18T03:18:33;62316.09;;;3.10;72.70
6899;BME280;3488;42.616;23.350;2023-02-18T03:21:07;62295.47;;;2.88;74.53
6899;BME280;3488;42.616;23.350;2023-02-18T03:23:38;62290.84;;;2.83;74.45
6899;BME280;3488;42.616;23.350;2023-02-18T03:26:08;62292.88;;;2.83;74.16
6899;BME280;3488;42.616;23.350;2023-02-18T03:28:38;62299.09;;;2.91;73.82
6899;BME280;3488;42.616;23.350;2023-02-18T03:31:08;62302.09;;;2.92;73.78
6899;BME280;3488;42.616;23.350;2023-02-18T03:33:41;62286.78;;;2.82;75.35
6899;BME280;3488;42.616;23.350;2023-02-18T03:36:12;62300.56;;;2.90;74.97
6899;BME280;3488;42.616;23.350;2023-02-18T03:38:43;62291.47;;;2.89;75.00
6899;BME280;3488;42.616;23.350;2023-02-18T03:41:11;62299.09;;;2.91;75.04
6899;BME280;3488;42.616;23.350;2023-02-18T03:43:40;62286.75;;;2.79;76.29
6899;BME280;3488;42.616;23.350;2023-02-18T03:46:14;62285.22;;;2.78;74.92
6899;BME280;3488;42.616;23.350;2023-02-18T03:48:42;62275.44;;;2.68;75.25
6899;BME280;3488;42.616;23.350;2023-02-18T03:51:09;62275.91;;;2.66;75.76
6899;BME280;3488;42.616;23.350;2023-02-18T03:53:37;62276.94;;;2.67;76.37
6899;BME280;3488;42.616;23.350;2023-02-18T03:56:05;62274.41;;;2.67;76.32
6899;BME280;3488;42.616;23.350;2023-02-18T03:58:32;62268.75;;;2.62;76.47
6899;BME280;3488;42.616;23.350;2023-02-18T04:01:00;62265.72;;;2.61;76.54
6899;BME280;3488;42.616;23.350;2023-02-18T04:03:27;62264.66;;;2.58;77.07
6899;BME280;3488;42.616;23.350;2023-02-18T04:05:54;62259.94;;;2.48;78.33
6899;BME280;3488;42.616;23.350;2023-02-18T04:08:22;62262.03;;;2.53;78.86
6899;BME280;3488;42.616;23.350;2023-02-18T04:10:51;62266.16;;;2.57;79.36
6899;BME280;3488;42.616;23.350;2023-02-18T04:13:18;62256.91;;;2.48;80.01
6899;BME280;3488;42.616;23.350;2023-02-18T04:15:48;62259.94;;;2.48;79.69
6899;BME280;3488;42.616;23.350;2023-02-18T04:18:21;62257.41;;;2.48;79.37
6899;BME280;3488;42.616;23.350;2023-02-18T04:20:48;62246.22;;;2.42;79.30
6899;BME280;3488;42.616;23.350;2023-02-18T04:23:17;62256.38;;;2.47;79.06
6899;BME280;3488;42.616;23.350;2023-02-18T04:25:45;62266.59;;;2.55;78.24
6899;BME280;3488;42.616;23.350;2023-02-18T04:28:14;62270.75;;;2.61;78.52
6899;BME280;3488;42.616;23.350;2023-02-18T04:30:42;62272.47;;;2.70;78.18
6899;BME280;3488;42.616;23.350;2023-02-18T04:33:10;62282.13;;;2.75;77.58
6899;BME280;3488;42.616;23.350;2023-02-18T04:35:37;62298.50;;;2.88;76.91
6899;BME280;3488;42.616;23.350;2023-02-18T04:38:06;62299.09;;;2.91;76.36
6899;BME280;3488;42.616;23.350;2023-02-18T04:40:33;62298.03;;;2.90;76.81
6899;BME280;3488;42.616;23.350;2023-02-18T04:43:01;62290.47;;;2.88;76.77
6899;BME280;3488;42.616;23.350;2023-02-18T04:45:39;62298.56;;;2.91;75.90
6899;BME280;3488;42.616;23.350;2023-02-18T04:48:05;62288.22;;;2.78;76.47
6899;BME280;3488;42.616;23.350;2023-02-18T04:50:33;62291.94;;;2.87;76.62
6899;BME280;3488;42.616;23.350;2023-02-18T04:53:00;62298.56;;;2.91;76.28
6899;BME280;3488;42.616;23.350;2023-02-18T04:55:27;62301.13;;;2.93;75.44
6899;BME280;3488;42.616;23.350;2023-02-18T04:57:54;62301.63;;;2.94;75.73
6899;BME280;3488;42.616;23.350;2023-02-18T05:00:21;62309.81;;;2.99;74.90
6899;BME280;3488;42.616;23.350;2023-02-18T05:02:50;62318.13;;;3.12;74.08
6899;BME280;3488;42.616;23.350;2023-02-18T05:05:17;62315.56;;;3.10;73.95
6899;BME280;3488;42.616;23.350;2023-02-18T05:07:44;62318.03;;;3.07;74.24
6899;BME280;3488;42.616;23.350;2023-02-18T05:10:15;62314.44;;;3.04;74.46
6899;BME280;3488;42.616;23.350;2023-02-18T05:12:43;62306.28;;;2.98;74.91
6899;BME280;3488;42.616;23.350;2023-02-18T05:15:10;62299.59;;;2.92;75.80
6899;BME280;3488;42.616;23.350;2023-02-18T05:17:38;62299.13;;;2.94;75.53
6899;BME280;3488;42.616;23.350;2023-02-18T05:20:07;62304.75;;;2.97;74.73
6899;BME280;3488;42.616;23.350;2023-02-18T05:22:34;62305.75;;;2.98;74.40
6899;BME280;3488;42.616;23.350;2023-02-18T05:25:02;62294.44;;;2.87;74.90
6899;BME280;3488;42.616;23.350;2023-02-18T05:27:30;62297.59;;;2.92;75.27
6899;BME280;3488;42.616;23.350;2023-02-18T05:29:57;62292.50;;;2.90;75.19
6899;BME280;3488;42.616;23.350;2023-02-18T05:32:24;62294.97;;;2.87;75.02
6899;BME280;3488;42.616;23.350;2023-02-18T05:34:51;62307.81;;;3.00;75.01
6899;BME280;3488;42.616;23.350;2023-02-18T05:37:20;62314.56;;;3.09;75.00
6899;BME280;3488;42.616;23.350;2023-02-18T05:39:48;62312.03;;;3.09;74.95
6899;BME280;3488;42.616;23.350;2023-02-18T05:42:15;62323.84;;;3.20;73.82
6899;BME280;3488;42.616;23.350;2023-02-18T05:44:42;62328.88;;;3.20;72.69
6899;BME280;3488;42.616;23.350;2023-02-18T05:47:11;62356.53;;;3.42;72.41
6899;BME280;3488;42.616;23.350;2023-02-18T05:49:40;62359.78;;;3.53;72.36
6899;BME280;3488;42.616;23.350;2023-02-18T05:52:08;62346.88;;;3.38;71.56
6899;BME280;3488;42.616;23.350;2023-02-18T05:54:38;62375.06;;;3.61;70.68
6899;BME280;3488;42.616;23.350;2023-02-18T05:57:05;62373.56;;;3.62;69.27
6899;BME280;3488;42.616;23.350;2023-02-18T05:59:32;62393.19;;;3.86;68.37
6899;BME280;3488;42.616;23.350;2023-02-18T06:01:59;62416.25;;;4.03;66.99
6899;BME280;3488;42.616;23.350;2023-02-18T06:04:26;62419.84;;;4.07;65.77
6899;BME280;3488;42.616;23.350;2023-02-18T06:06:53;62433.72;;;4.20;64.20
6899;BME280;3488;42.616;23.350;2023-02-18T06:09:20;62420.41;;;4.10;67.29
6899;BME280;3488;42.616;23.350;2023-02-18T06:11:49;62395.31;;;3.90;69.56
6899;BME280;3488;42.616;23.350;2023-02-18T06:14:17;62415.78;;;4.05;70.15
6899;BME280;3488;42.616;23.350;2023-02-18T06:16:45;62415.25;;;4.05;69.02
6899;BME280;3488;42.616;23.350;2023-02-18T06:19:12;62419.84;;;4.07;68.00
6899;BME280;3488;42.616;23.350;2023-02-18T06:21:39;62429.09;;;4.16;68.12
6899;BME280;3488;42.616;23.350;2023-02-18T06:24:06;62442.59;;;4.34;68.22
6899;BME280;3488;42.616;23.350;2023-02-18T06:26:34;62466.16;;;4.52;67.13
6899;BME280;3488;42.616;23.350;2023-02-18T06:29:03;62472.88;;;4.61;66.60
6899;BME280;3488;42.616;23.350;2023-02-18T06:31:30;62475.50;;;4.66;65.97
6899;BME280;3488;42.616;23.350;2023-02-18T06:33:57;62467.69;;;4.53;66.58
6899;BME280;3488;42.616;23.350;2023-02-18T06:36:25;62476.44;;;4.62;67.38
6899;BME280;3488;42.616;23.350;2023-02-18T06:38:52;62487.41;;;4.80;67.11
6899;BME280;3488;42.616;23.350;2023-02-18T06:41:22;62514.06;;;5.01;65.44
6899;BME280;3488;42.616;23.350;2023-02-18T06:43:49;62532.66;;;5.22;64.81
6899;BME280;3488;42.616;23.350;2023-02-18T06:46:18;62549.53;;;5.33;64.12
6899;BME280;3488;42.616;23.350;2023-02-18T06:48:46;62565.56;;;5.51;63.84
6899;BME280;3488;42.616;23.350;2023-02-18T06:51:13;62559.81;;;5.41;63.33
6899;BME280;3488;42.616;23.350;2023-02-18T06:53:41;62578.91;;;5.62;62.74
6899;BME280;3488;42.616;23.350;2023-02-18T06:56:08;62587.72;;;5.73;62.90
6899;BME280;3488;42.616;23.350;2023-02-18T06:58:36;62602.69;;;5.88;62.21
6899;BME280;3488;42.616;23.350;2023-02-18T07:01:03;62615.56;;;6.00;62.63
6899;BME280;3488;42.616;23.350;2023-02-18T07:03:32;62612.44;;;5.95;63.08
6899;BME280;3488;42.616;23.350;2023-02-18T07:05:59;62634.13;;;6.18;63.24
6899;BME280;3488;42.616;23.350;2023-02-18T07:08:26;62654.75;;;6.38;59.37
6899;BME280;3488;42.616;23.350;2023-02-18T07:10:55;62673.75;;;6.54;59.46
6899;BME280;3488;42.616;23.350;2023-02-18T07:13:22;62687.69;;;6.68;59.08
6899;BME280;3488;42.616;23.350;2023-02-18T07:15:49;62666.59;;;6.50;59.11
6899;BME280;3488;42.616;23.350;2023-02-18T07:18:16;62685.22;;;6.70;58.16
6899;BME280;3488;42.616;23.350;2023-02-18T07:20:45;62678.50;;;6.64;58.04
6899;BME280;3488;42.616;23.350;2023-02-18T07:23:12;62691.41;;;6.76;57.23
6899;BME280;3488;42.616;23.350;2023-02-18T07:25:39;62620.72;;;6.05;58.78
6899;BME280;3488;42.616;23.350;2023-02-18T07:28:06;62654.25;;;6.40;58.56
6899;BME280;3488;42.616;23.350;2023-02-18T07:30:33;62675.88;;;6.59;58.38
6899;BME280;3488;42.616;23.350;2023-02-18T07:33:00;62697.53;;;6.80;57.52
6899;BME280;3488;42.616;23.350;2023-02-18T07:35:27;62721.72;;;7.01;57.49
6899;BME280;3488;42.616;23.350;2023-02-18T07:37:56;62745.47;;;7.24;56.46
6899;BME280;3488;42.616;23.350;2023-02-18T07:40:23;62763.06;;;7.44;55.77
6899;BME280;3488;42.616;23.350;2023-02-18T07:42:50;62782.66;;;7.63;54.39
6899;BME280;3488;42.616;23.350;2023-02-18T07:45:17;62796.59;;;7.76;52.87
6899;BME280;3488;42.616;23.350;2023-02-18T07:47:44;62806.38;;;7.83;52.53
6899;BME280;3488;42.616;23.350;2023-02-18T07:50:11;62805.84;;;7.83;52.19
6899;BME280;3488;42.616;23.350;2023-02-18T07:52:38;62793.47;;;7.71;51.55
6899;BME280;3488;42.616;23.350;2023-02-18T07:55:07;62792.94;;;7.70;51.60
6899;BME280;3488;42.616;23.350;2023-02-18T07:57:34;62799.72;;;7.82;51.75
6899;BME280;3488;42.616;23.350;2023-02-18T08:00:22;62793.53;;;7.76;51.65
6899;BME280;3488;42.616;23.350;2023-02-18T08:02:49;62781.09;;;7.61;51.63
6899;BME280;3488;42.616;23.350;2023-02-18T08:05:17;62761.09;;;7.47;51.57
6899;BME280;3488;42.616;23.350;2023-02-18T08:07:44;62776.91;;;7.52;51.71
6899;BME280;3488;42.616;23.350;2023-02-18T08:10:13;62760.47;;;7.41;51.36
6899;BME280;3488;42.616;23.350;2023-02-18T08:12:40;62783.69;;;7.64;51.43
6899;BME280;3488;42.616;23.350;2023-02-18T08:15:08;62814.72;;;7.96;51.08
6899;BME280;3488;42.616;23.350;2023-02-18T08:17:35;62832.78;;;8.14;50.29
6899;BME280;3488;42.616;23.350;2023-02-18T08:20:02;62872.94;;;8.46;50.01
6899;BME280;3488;42.616;23.350;2023-02-18T08:22:29;62906.63;;;8.83;49.70
6899;BME280;3488;42.616;23.350;2023-02-18T08:24:57;62916.94;;;8.93;47.21
6899;BME280;3488;42.616;23.350;2023-02-18T08:27:25;62942.75;;;9.16;46.77
6899;BME280;3488;42.616;23.350;2023-02-18T08:29:53;62939.13;;;9.12;46.83
6899;BME280;3488;42.616;23.350;2023-02-18T08:32:21;62966.59;;;9.44;46.77
6899;BME280;3488;42.616;23.350;2023-02-18T08:34:48;62985.75;;;9.63;45.46
6899;BME280;3488;42.616;23.350;2023-02-18T08:37:15;63013.09;;;9.87;46.03
6899;BME280;3488;42.616;23.350;2023-02-18T08:39:42;63041.59;;;10.17;45.75
6899;BME280;3488;42.616;23.350;2023-02-18T08:42:09;63069.44;;;10.36;45.40
6899;BME280;3488;42.616;23.350;2023-02-18T08:44:38;63088.66;;;10.60;44.03
6899;BME280;3488;42.616;23.350;2023-02-18T08:47:05;63098.00;;;10.72;43.35
6899;BME280;3488;42.616;23.350;2023-02-18T08:49:32;63117.66;;;10.91;43.24
6899;BME280;3488;42.616;23.350;2023-02-18T08:52:01;63127.97;;;10.96;43.22
6899;BME280;3488;42.616;23.350;2023-02-18T08:54:29;63123.75;;;10.89;43.10
6899;BME280;3488;42.616;23.350;2023-02-18T08:56:56;63122.34;;;10.95;43.07
6899;BME280;3488;42.616;23.350;2023-02-18T08:59:24;63048.72;;;10.16;43.81
6899;BME280;3488;42.616;23.350;2023-02-18T09:01:52;63001.72;;;9.76;44.67
6899;BME280;3488;42.616;23.350;2023-02-18T09:04:20;63029.13;;;10.02;44.64
6899;BME280;3488;42.616;23.350;2023-02-18T09:06:48;63056.00;;;10.26;44.19
6899;BME280;3488;42.616;23.350;2023-02-18T09:09:16;63077.78;;;10.49;43.72
6899;BME280;3488;42.616;23.350;2023-02-18T09:11:44;63066.44;;;10.41;42.92
6899;BME280;3488;42.616;23.350;2023-02-18T09:14:12;63053.41;;;10.23;43.75
6899;BME280;3488;42.616;23.350;2023-02-18T09:16:39;63070.50;;;10.40;43.88
6899;BME280;3488;42.616;23.350;2023-02-18T09:19:09;63034.81;;;10.08;43.69
6899;BME280;3488;42.616;23.350;2023-02-18T09:21:36;63020.38;;;9.96;44.37
6899;BME280;3488;42.616;23.350;2023-02-18T09:24:04;63040.06;;;10.15;44.29
6899;BME280;3488;42.616;23.350;2023-02-18T09:26:31;63056.06;;;10.28;44.03
6899;BME280;3488;42.616;23.350;2023-02-18T09:28:59;63073.06;;;10.42;43.67
6899;BME280;3488;42.616;23.350;2023-02-18T09:31:27;63069.03;;;10.43;43.88
6899;BME280;3488;42.616;23.350;2023-02-18T09:33:58;63088.69;;;10.63;43.67
6899;BME280;3488;42.616;23.350;2023-02-18T09:36:27;63085.53;;;10.57;44.19
6899;BME280;3488;42.616;23.350;2023-02-18T09:38:54;63080.94;;;10.55;44.33
6899;BME280;3488;42.616;23.350;2023-02-18T09:41:28;63098.50;;;10.70;43.66
6899;BME280;3488;42.616;23.350;2023-02-18T09:43:58;63125.88;;;10.94;43.89
6899;BME280;3488;42.616;23.350;2023-02-18T09:46:29;63159.69;;;11.36;43.42
6899;BME280;3488;42.616;23.350;2023-02-18T09:49:01;63204.09;;;11.70;42.06
6899;BME280;3488;42.616;23.350;2023-02-18T09:51:30;63175.59;;;11.42;42.14
6899;BME280;3488;42.616;23.350;2023-02-18T09:53:57;63190.66;;;11.59;42.04
6899;BME280;3488;42.616;23.350;2023-02-18T09:56:28;63218.09;;;11.83;42.54
6899;BME280;3488;42.616;23.350;2023-02-18T09:58:57;63237.25;;;12.02;40.40
6899;BME280;3488;42.616;23.350;2023-02-18T10:01:28;63200.03;;;11.71;41.46
6899;BME280;3488;42.616;23.350;2023-02-18T10:04:00;63187.03;;;11.55;41.26
6899;BME280;3488;42.616;23.350;2023-02-18T10:06:32;63164.19;;;11.31;41.90
6899;BME280;3488;42.616;23.350;2023-02-18T10:09:02;63165.22;;;11.32;42.03
6899;BME280;3488;42.616;23.350;2023-02-18T10:11:32;63169.91;;;11.39;41.83
6899;BME280;3488;42.616;23.350;2023-02-18T10:14:02;63168.38;;;11.37;41.28
6899;BME280;3488;42.616;23.350;2023-02-18T10:16:29;63183.84;;;11.47;41.30
6899;BME280;3488;42.616;23.350;2023-02-18T10:18:58;63184.94;;;11.53;40.17
6899;BME280;3488;42.616;23.350;2023-02-18T10:21:31;63180.25;;;11.46;40.15
6899;BME280;3488;42.616;23.350;2023-02-18T10:24:04;63188.03;;;11.56;40.51
6899;BME280;3488;42.616;23.350;2023-02-18T10:26:34;63214.38;;;11.75;40.02
6899;BME280;3488;42.616;23.350;2023-02-18T10:29:03;63200.47;;;11.66;40.50
6899;BME280;3488;42.616;23.350;2023-02-18T10:31:43;63225.38;;;11.93;40.33
6899;BME280;3488;42.616;23.350;2023-02-18T10:34:16;63236.25;;;12.03;40.18
6899;BME280;3488;42.616;23.350;2023-02-18T10:36:52;63265.75;;;12.29;39.30
6899;BME280;3488;42.616;23.350;2023-02-18T10:39:50;63223.22;;;11.86;39.49
6899;BME280;3488;42.616;23.350;2023-02-18T10:42:30;63216.56;;;11.84;39.62
6899;BME280;3488;42.616;23.350;2023-02-18T10:45:09;63205.69;;;11.74;39.99
6899;BME280;3488;42.616;23.350;2023-02-18T10:47:44;63232.53;;;11.95;39.80
6899;BME280;3488;42.616;23.350;2023-02-18T10:50:25;63281.28;;;12.44;39.70
6899;BME280;3488;42.616;23.350;2023-02-18T10:52:58;63341.41;;;13.00;38.79
6899;BME280;3488;42.616;23.350;2023-02-18T10:55:34;63386.16;;;13.51;38.12
6899;BME280;3488;42.616;23.350;2023-02-18T10:58:03;63405.81;;;13.67;37.37
6899;BME280;3488;42.616;23.350;2023-02-18T11:00:49;63420.88;;;13.82;36.88
6899;BME280;3488;42.616;23.350;2023-02-18T11:03:19;63451.00;;;14.14;36.34
6899;BME280;3488;42.616;23.350;2023-02-18T11:05:49;63425.09;;;13.91;36.39
6899;BME280;3488;42.616;23.350;2023-02-18T11:08:21;63455.66;;;14.16;36.65
6899;BME280;3488;42.616;23.350;2023-02-18T11:10:49;63474.31;;;14.29;35.78
6899;BME280;3488;42.616;23.350;2023-02-18T11:13:24;63481.13;;;14.40;35.72
6899;BME280;3488;42.616;23.350;2023-02-18T11:15:57;63493.03;;;14.49;35.66
6899;BME280;3488;42.616;23.350;2023-02-18T11:18:35;63497.75;;;14.59;35.16
6899;BME280;3488;42.616;23.350;2023-02-18T11:21:08;63498.69;;;14.52;35.14
6899;BME280;3488;42.616;23.350;2023-02-18T11:23:48;63474.84;;;14.32;36.14
6899;BME280;3488;42.616;23.350;2023-02-18T11:26:20;63479.50;;;14.34;36.79
6899;BME280;3488;42.616;23.350;2023-02-18T11:28:57;63475.34;;;14.30;36.45
6899;BME280;3488;42.616;23.350;2023-02-18T11:31:37;63476.94;;;14.34;35.92
6899;BME280;3488;42.616;23.350;2023-02-18T11:34:13;63468.56;;;14.23;36.51
6899;BME280;3488;42.616;23.350;2023-02-18T11:36:41;63487.78;;;14.42;35.96
6899;BME280;3488;42.616;23.350;2023-02-18T11:39:17;63467.09;;;14.27;36.41
6899;BME280;3488;42.616;23.350;2023-02-18T11:41:47;63492.47;;;14.46;36.66
6899;BME280;3488;42.616;23.350;2023-02-18T11:44:21;63535.56;;;14.88;36.45
6899;BME280;3488;42.616;23.350;2023-02-18T11:46:57;63551.72;;;15.06;35.81
6899;BME280;3488;42.616;23.350;2023-02-18T11:49:25;63571.41;;;15.23;35.22
6899;BME280;3488;42.616;23.350;2023-02-18T11:51:59;63566.81;;;15.23;35.42
6899;BME280;3488;42.616;23.350;2023-02-18T11:54:31;63583.44;;;15.39;34.30
6899;BME280;3488;42.616;23.350;2023-02-18T11:57:02;63570.91;;;15.22;33.75
6899;BME280;3488;42.616;23.350;2023-02-18T11:59:32;63532.53;;;14.90;34.67
6899;BME280;3488;42.616;23.350;2023-02-18T12:02:05;63563.19;;;15.20;34.47
6899;BME280;3488;42.616;23.350;2023-02-18T12:04:41;63602.69;;;15.58;33.79
6899;BME280;3488;42.616;23.350;2023-02-18T12:07:16;63647.34;;;15.96;33.66
6899;BME280;3488;42.616;23.350;2023-02-18T12:09:48;63676.00;;;16.29;33.31
6899;BME280;3488;42.616;23.350;2023-02-18T12:12:19;63701.47;;;16.51;33.01
6899;BME280;3488;42.616;23.350;2023-02-18T12:14:53;63678.03;;;16.28;33.72
6899;BME280;3488;42.616;23.350;2023-02-18T12:17:41;63696.19;;;16.41;33.26
6899;BME280;3488;42.616;23.350;2023-02-18T12:23:29;63729.06;;;16.77;32.83
6899;BME280;3488;42.616;23.350;2023-02-18T12:26:07;63737.38;;;16.85;32.40
6899;BME280;3488;42.616;23.350;2023-02-18T12:28:56;63754.03;;;17.01;32.60
6899;BME280;3488;42.616;23.350;2023-02-18T12:31:38;63764.38;;;17.09;32.97
6899;BME280;3488;42.616;23.350;2023-02-18T12:34:24;63746.75;;;16.94;32.71
6899;BME280;3488;42.616;23.350;2023-02-18T12:37:02;63744.13;;;16.92;33.17
6899;BME280;3488;42.616;23.350;2023-02-18T12:39:48;63716.06;;;16.67;33.29
6899;BME280;3488;42.616;23.350;2023-02-18T12:42:33;63718.63;;;16.67;33.56
6899;BME280;3488;42.616;23.350;2023-02-18T12:45:16;63738.88;;;16.84;33.56
6899;BME280;3488;42.616;23.350;2023-02-18T12:48:04;63746.75;;;16.94;32.80
6899;BME280;3488;42.616;23.350;2023-02-18T12:50:49;63744.66;;;16.95;32.52
6899;BME280;3488;42.616;23.350;2023-02-18T12:53:31;63740.00;;;16.93;32.21
6899;BME280;3488;42.616;23.350;2023-02-18T12:59:07;63739.47;;;16.90;32.53
6899;BME280;3488;42.616;23.350;2023-02-18T13:01:42;63710.31;;;16.59;34.43
6899;BME280;3488;42.616;23.350;2023-02-18T13:04:32;63700.94;;;16.50;34.54
6899;BME280;3488;42.616;23.350;2023-02-18T13:07:37;63720.72;;;16.69;35.11
6899;BME280;3488;42.616;23.350;2023-02-18T13:10:41;63712.41;;;16.61;35.74
6899;BME280;3488;42.616;23.350;2023-02-18T13:13:13;63729.50;;;16.73;35.75
6899;BME280;3488;42.616;23.350;2023-02-18T13:15:46;63749.84;;;16.97;35.25
6899;BME280;3488;42.616;23.350;2023-02-18T13:18:19;63750.38;;;16.98;35.32
6899;BME280;3488;42.616;23.350;2023-02-18T13:20:51;63763.34;;;17.08;34.47
6899;BME280;3488;42.616;23.350;2023-02-18T13:23:22;63744.66;;;16.92;34.34
6899;BME280;3488;42.616;23.350;2023-02-18T13:25:53;63718.09;;;16.64;35.19
6899;BME280;3488;42.616;23.350;2023-02-18T13:28:26;63695.78;;;16.48;35.32
6899;BME280;3488;42.616;23.350;2023-02-18T13:31:05;63690.56;;;16.43;35.61
6899;BME280;3488;42.616;23.350;2023-02-18T13:33:43;63696.28;;;16.48;34.86
6899;BME280;3488;42.616;23.350;2023-02-18T13:36:23;63706.13;;;16.55;35.33
6899;BME280;3488;42.616;23.350;2023-02-18T13:39:03;63680.06;;;16.25;35.03
6899;BME280;3488;42.616;23.350;2023-02-18T13:41:35;63672.31;;;16.23;35.03
6899;BME280;3488;42.616;23.350;2023-02-18T13:46:51;63636.41;;;15.85;36.60
6899;BME280;3488;42.616;23.350;2023-02-18T13:49:19;63637.50;;;15.91;36.26